createdAt,value
2019-02-23T00:02:13.762Z,13.47
2019-02-23T00:04:46.158Z,12.73
2019-02-23T00:07:19.558Z,9.23
2019-02-23T00:09:52.104Z,9.13
2019-02-23T00:12:24.582Z,10.90
2019-02-23T00:14:57.270Z,10.57
2019-02-23T00:17:29.540Z,12.67
2019-02-23T00:20:02.112Z,11.20
2019-02-23T00:22:34.643Z,10.90
2019-02-23T00:25:07.295Z,13.63
2019-02-23T00:27:39.740Z,11.87
2019-02-23T00:30:12.431Z,12.67
2019-02-23T00:32:45.034Z,10.87
2019-02-23T00:35:17.679Z,12.20
2019-02-23T00:37:50.415Z,12.23
2019-02-23T00:40:23.035Z,11.60
2019-02-23T00:42:55.510Z,16.97
2019-02-23T00:45:28.334Z,10.50
2019-02-23T00:48:00.925Z,17.50
2019-02-23T00:50:33.555Z,11.07
2019-02-23T00:53:06.278Z,12.23
2019-02-23T00:55:38.933Z,10.83
2019-02-23T00:58:11.389Z,10.93
2019-02-23T01:00:44.165Z,11.83
2019-02-23T01:03:16.934Z,10.93
2019-02-23T01:05:49.868Z,15.57
2019-02-23T01:08:22.359Z,12.20
2019-02-23T01:10:58.158Z,13.30
2019-02-23T01:13:29.172Z,12.07
2019-02-23T01:16:01.525Z,11.67
2019-02-23T01:18:33.881Z,13.57
2019-02-23T01:21:06.295Z,11.00
2019-02-23T01:23:38.839Z,11.20
2019-02-23T01:26:11.391Z,10.97
2019-02-23T01:28:44.101Z,12.63
2019-02-23T01:31:16.676Z,15.07
2019-02-23T01:33:49.149Z,16.40
2019-02-23T01:36:21.910Z,11.47
2019-02-23T01:38:54.518Z,17.50
2019-02-23T01:41:26.942Z,13.33
2019-02-23T01:44:00.589Z,13.67
2019-02-23T01:46:33.181Z,13.83
2019-02-23T01:49:05.750Z,15.00
2019-02-23T01:51:38.384Z,17.80
2019-02-23T01:54:11.307Z,15.90
2019-02-23T01:56:43.935Z,14.00
2019-02-23T01:59:16.200Z,12.67
2019-02-23T02:01:48.949Z,18.17
2019-02-23T02:04:21.279Z,13.23
2019-02-23T02:06:53.829Z,15.63
2019-02-23T02:09:26.387Z,15.53
2019-02-23T02:11:59.108Z,12.60
2019-02-23T02:14:31.378Z,17.57
2019-02-23T02:17:04.035Z,21.07
2019-02-23T02:19:36.656Z,12.60
2019-02-23T02:22:09.267Z,15.67
2019-02-23T02:24:41.820Z,15.43
2019-02-23T02:27:14.302Z,19.70
2019-02-23T02:29:46.944Z,13.77
2019-02-23T02:32:19.495Z,15.63
2019-02-23T02:34:52.074Z,14.90
2019-02-23T02:37:24.762Z,11.90
2019-02-23T02:39:57.465Z,13.93
2019-02-23T02:42:29.953Z,18.33
2019-02-23T02:45:02.278Z,16.27
2019-02-23T02:47:34.639Z,16.40
2019-02-23T02:50:08.094Z,15.00
2019-02-23T02:52:40.745Z,14.10
2019-02-23T02:55:13.300Z,16.93
2019-02-23T02:57:46.394Z,16.87
2019-02-23T03:00:18.934Z,15.53
2019-02-23T03:02:51.320Z,14.57
2019-02-23T03:05:23.939Z,17.27
2019-02-23T03:07:56.497Z,18.83
2019-02-23T03:10:29.130Z,12.77
2019-02-23T03:13:01.497Z,15.17
2019-02-23T03:15:40.595Z,15.40
2019-02-23T03:18:13.289Z,15.40
2019-02-23T03:20:45.764Z,15.90
2019-02-23T03:23:18.144Z,16.83
2019-02-23T03:25:50.828Z,20.63
2019-02-23T03:28:23.198Z,14.20
2019-02-23T03:30:55.539Z,14.67
2019-02-23T03:33:28.245Z,13.50
2019-02-23T03:36:00.756Z,13.83
2019-02-23T03:38:33.370Z,25.90
2019-02-23T03:41:05.826Z,15.17
2019-02-23T03:43:38.241Z,17.27
2019-02-23T03:46:11.065Z,16.93
2019-02-23T03:48:43.806Z,17.43
2019-02-23T03:51:16.150Z,16.80
2019-02-23T03:53:48.832Z,15.20
2019-02-23T03:56:21.543Z,16.27
2019-02-23T03:58:54.282Z,15.23
2019-02-23T04:01:26.554Z,15.53
2019-02-23T04:03:58.899Z,14.60
2019-02-23T04:06:31.464Z,18.63
2019-02-23T04:09:04.350Z,16.63
2019-02-23T04:11:36.685Z,21.30
2019-02-23T04:14:09.290Z,14.30
2019-02-23T04:16:41.887Z,15.23
2019-02-23T04:19:14.630Z,14.27
2019-02-23T04:21:46.968Z,16.17
2019-02-23T04:24:19.308Z,17.20
2019-02-23T04:26:51.789Z,15.50
2019-02-23T04:29:24.172Z,14.90
2019-02-23T04:31:56.454Z,15.33
2019-02-23T04:34:28.807Z,15.37
2019-02-23T04:37:01.328Z,17.53
2019-02-23T04:39:33.879Z,16.30
2019-02-23T04:42:06.355Z,15.60
2019-02-23T04:44:39.032Z,15.33
2019-02-23T04:47:11.337Z,19.70
2019-02-23T04:49:46.897Z,13.80
2019-02-23T04:52:20.065Z,17.33
2019-02-23T04:54:52.638Z,15.20
2019-02-23T04:57:25.421Z,13.10
2019-02-23T04:59:58.025Z,11.97
2019-02-23T05:02:30.348Z,11.40
2019-02-23T05:05:02.765Z,16.33
2019-02-23T05:07:35.175Z,15.50
2019-02-23T05:10:07.920Z,14.90
2019-02-23T05:12:40.312Z,15.47
2019-02-23T05:15:13.865Z,15.90
2019-02-23T05:17:46.129Z,12.70
2019-02-23T05:20:18.767Z,13.33
2019-02-23T05:22:51.754Z,12.60
2019-02-23T05:25:24.489Z,12.27
2019-02-23T05:27:57.323Z,14.40
2019-02-23T05:30:30.214Z,16.27
2019-02-23T05:33:02.741Z,16.20
2019-02-23T05:35:35.283Z,17.03
2019-02-23T05:38:07.759Z,16.53
2019-02-23T05:40:40.503Z,16.83
2019-02-23T05:43:12.979Z,14.80
2019-02-23T05:45:45.490Z,15.43
2019-02-23T05:48:20.476Z,14.00
2019-02-23T05:50:53.343Z,16.80
2019-02-23T05:53:25.715Z,14.43
2019-02-23T05:55:58.258Z,13.37
2019-02-23T05:58:30.832Z,14.70
2019-02-23T06:01:03.424Z,19.97
2019-02-23T06:03:35.957Z,14.73
2019-02-23T06:06:08.379Z,14.73
2019-02-23T06:08:40.910Z,17.03
2019-02-23T06:11:13.244Z,19.30
2019-02-23T06:13:45.582Z,18.37
2019-02-23T06:16:18.167Z,14.30
2019-02-23T06:18:50.735Z,13.63
2019-02-23T06:21:23.233Z,16.87
2019-02-23T06:23:55.944Z,14.07
2019-02-23T06:26:28.369Z,16.00
2019-02-23T06:29:00.801Z,13.43
2019-02-23T06:31:33.845Z,12.00
2019-02-23T06:34:15.553Z,16.83
2019-02-23T06:36:40.525Z,19.50
2019-02-23T06:39:13.128Z,20.00
2019-02-23T06:41:45.456Z,17.97
2019-02-23T06:44:18.011Z,16.43
2019-02-23T06:46:50.683Z,17.13
2019-02-23T06:49:23.089Z,14.97
2019-02-23T06:52:04.028Z,15.23
2019-02-23T06:54:29.579Z,15.43
2019-02-23T06:57:01.900Z,17.00
2019-02-23T06:59:34.341Z,14.50
2019-02-23T07:02:06.692Z,16.67
2019-02-23T07:04:39.131Z,16.80
2019-02-23T07:07:11.863Z,13.60
2019-02-23T07:09:44.102Z,19.37
2019-02-23T07:12:16.451Z,17.10
2019-02-23T07:14:48.835Z,14.70
2019-02-23T07:17:21.350Z,15.07
2019-02-23T07:19:54.120Z,9.63
2019-02-23T07:22:26.731Z,14.00
2019-02-23T07:24:59.111Z,16.90
2019-02-23T07:27:31.510Z,15.13
2019-02-23T07:30:03.957Z,14.27
2019-02-23T07:32:36.349Z,11.30
2019-02-23T07:35:08.787Z,12.13
2019-02-23T07:37:41.479Z,12.67
2019-02-23T07:40:13.824Z,17.73
2019-02-23T07:42:46.227Z,14.07
2019-02-23T07:45:18.918Z,14.83
2019-02-23T07:47:51.292Z,13.20
2019-02-23T07:50:23.868Z,15.43
2019-02-23T07:52:56.679Z,13.27
2019-02-23T07:55:29.443Z,19.40
2019-02-23T07:58:01.982Z,15.27
2019-02-23T08:00:34.416Z,15.67
2019-02-23T08:03:07.224Z,12.03
2019-02-23T08:05:39.511Z,13.20
2019-02-23T08:08:11.864Z,14.40
2019-02-23T08:10:44.154Z,13.37
2019-02-23T08:13:16.511Z,15.80
2019-02-23T08:15:49.137Z,13.67
2019-02-23T08:18:21.761Z,12.10
2019-02-23T08:20:54.038Z,13.03
2019-02-23T08:23:26.402Z,15.97
2019-02-23T08:25:58.818Z,20.47
2019-02-23T08:28:31.306Z,11.30
2019-02-23T08:31:04.262Z,13.37
2019-02-23T08:33:36.828Z,10.80
2019-02-23T08:36:09.204Z,20.83
2019-02-23T08:38:41.608Z,18.00
2019-02-23T08:41:14.218Z,11.60
2019-02-23T08:43:46.633Z,12.53
2019-02-23T08:46:19.126Z,10.93
2019-02-23T08:48:51.721Z,13.38
2019-02-23T08:51:24.299Z,11.90
2019-02-23T08:53:56.856Z,13.25
2019-02-23T08:56:31.073Z,12.60
2019-02-23T08:59:03.519Z,12.68
2019-02-23T09:01:35.890Z,16.10
2019-02-23T09:04:08.706Z,10.82
2019-02-23T09:06:41.251Z,11.08
2019-02-23T09:09:13.864Z,10.20
2019-02-23T09:11:46.821Z,18.67
2019-02-23T09:14:19.612Z,13.50
2019-02-23T09:16:52.209Z,12.33
2019-02-23T09:19:24.861Z,12.40
2019-02-23T09:21:57.543Z,12.28
2019-02-23T09:24:29.850Z,11.83
2019-02-23T09:27:02.513Z,11.60
2019-02-23T09:29:34.884Z,11.43
2019-02-23T09:32:07.551Z,11.70
2019-02-23T09:34:39.947Z,11.78
2019-02-23T09:37:12.491Z,18.07
2019-02-23T09:39:44.973Z,12.60
2019-02-23T09:42:17.346Z,10.77
2019-02-23T09:44:49.893Z,11.00
2019-02-23T09:47:22.399Z,9.73
2019-02-23T09:49:54.960Z,11.07
2019-02-23T09:52:27.444Z,9.77
2019-02-23T09:54:59.902Z,10.47
2019-02-23T09:57:32.203Z,11.13
2019-02-23T10:00:04.900Z,9.93
2019-02-23T10:02:37.297Z,9.07
2019-02-23T10:05:09.688Z,11.73
2019-02-23T10:07:42.026Z,10.50
2019-02-23T10:10:15.182Z,12.50
2019-02-23T10:12:47.771Z,8.90
2019-02-23T10:15:20.444Z,10.53
2019-02-23T10:17:53.156Z,15.80
2019-02-23T10:20:25.517Z,11.40
2019-02-23T10:22:58.021Z,10.13
2019-02-23T10:25:30.665Z,23.50
2019-02-23T10:28:03.218Z,14.60
2019-02-23T10:30:35.733Z,12.77
2019-02-23T10:33:08.431Z,9.50
2019-02-23T10:35:40.778Z,11.27
2019-02-23T10:38:13.292Z,11.90
2019-02-23T10:40:45.716Z,14.73
2019-02-23T10:43:18.110Z,19.00
2019-02-23T10:46:09.119Z,15.30
2019-02-23T10:48:41.608Z,10.03
2019-02-23T10:51:14.019Z,10.03
2019-02-23T10:53:46.536Z,8.37
2019-02-23T10:56:19.063Z,8.33
2019-02-23T10:58:51.810Z,9.90
2019-02-23T11:01:24.164Z,8.40
2019-02-23T11:03:56.711Z,9.57
2019-02-23T11:06:29.319Z,13.13
2019-02-23T11:09:01.911Z,10.43
2019-02-23T11:11:34.767Z,9.27
2019-02-23T11:14:07.821Z,9.77
2019-02-23T11:16:40.230Z,9.50
2019-02-23T11:19:12.914Z,11.87
2019-02-23T11:21:45.540Z,7.97
2019-02-23T11:24:18.470Z,12.53
2019-02-23T11:26:50.944Z,10.13
2019-02-23T11:29:23.402Z,9.70
2019-02-23T11:31:55.728Z,12.97
2019-02-23T11:34:28.164Z,9.83
2019-02-23T11:37:00.635Z,7.97
2019-02-23T11:39:33.625Z,28.37
2019-02-23T11:42:06.183Z,36.17
2019-02-23T11:44:38.584Z,20.10
2019-02-23T11:47:11.461Z,17.97
2019-02-23T11:49:43.834Z,15.23
2019-02-23T11:52:16.495Z,34.60
2019-02-23T11:54:48.952Z,32.77
2019-02-23T11:57:21.530Z,9.50
2019-02-23T11:59:54.418Z,9.90
2019-02-23T12:02:27.149Z,8.10
2019-02-23T12:04:59.785Z,9.33
2019-02-23T12:07:32.326Z,10.37
2019-02-23T12:10:04.924Z,10.80
2019-02-23T12:12:38.326Z,11.10
2019-02-23T12:15:13.370Z,10.93
2019-02-23T12:17:45.778Z,11.97
2019-02-23T12:20:18.325Z,11.67
2019-02-23T12:22:51.121Z,10.83
2019-02-23T12:25:23.872Z,9.83
2019-02-23T12:27:56.772Z,14.37
2019-02-23T12:30:29.242Z,10.43
2019-02-23T12:33:01.594Z,15.43
2019-02-23T12:35:34.733Z,10.93
2019-02-23T12:38:07.366Z,10.73
2019-02-23T12:40:39.699Z,9.90
2019-02-23T12:43:12.521Z,14.93
2019-02-23T12:45:44.961Z,20.53
2019-02-23T12:48:17.485Z,17.20
2019-02-23T12:50:50.021Z,10.43
2019-02-23T12:53:22.661Z,16.13
2019-02-23T12:55:55.531Z,11.50
2019-02-23T12:58:27.925Z,10.60
2019-02-23T13:01:00.505Z,13.43
2019-02-23T13:03:33.075Z,11.43
2019-02-23T13:06:05.974Z,13.13
2019-02-23T13:09:18.340Z,12.97
2019-02-23T13:12:23.733Z,9.73
2019-02-23T13:15:17.833Z,12.07
2019-02-23T13:18:52.019Z,11.17
2019-02-23T13:22:28.700Z,10.60
2019-02-23T13:25:48.867Z,10.57
2019-02-23T13:29:18.247Z,13.67
2019-02-23T13:32:56.770Z,11.97
2019-02-23T13:36:27.904Z,13.07
2019-02-23T13:39:41.197Z,10.50
2019-02-23T13:42:54.783Z,12.30
2019-02-23T13:46:36.682Z,10.47
2019-02-23T13:50:12.021Z,9.77
2019-02-23T13:53:58.378Z,15.80
2019-02-23T13:57:44.797Z,10.73
2019-02-23T14:01:02.714Z,11.47
2019-02-23T14:04:26.555Z,12.47
2019-02-23T14:08:16.296Z,11.17
2019-02-23T14:11:54.236Z,8.87
2019-02-23T14:14:58.623Z,10.73
2019-02-23T14:18:34.016Z,10.90
2019-02-23T14:22:06.079Z,10.33
2019-02-23T14:25:23.779Z,10.30
2019-02-23T14:28:49.044Z,11.93
2019-02-23T14:32:23.740Z,11.40
2019-02-23T14:35:56.479Z,9.60
2019-02-23T14:39:52.121Z,10.30
2019-02-23T14:43:20.224Z,13.53
2019-02-23T14:47:12.513Z,13.73
2019-02-23T14:50:56.099Z,8.57
2019-02-23T14:54:23.647Z,21.43
2019-02-23T14:57:45.815Z,24.23
2019-02-23T15:01:23.699Z,12.33
2019-02-23T15:04:45.926Z,14.20
2019-02-23T15:08:14.146Z,10.67
2019-02-23T15:11:37.808Z,7.77
2019-02-23T15:15:02.304Z,9.60
2019-02-23T15:18:18.999Z,8.57
2019-02-23T15:21:55.729Z,13.07
2019-02-23T15:25:45.579Z,12.47
2019-02-23T15:29:22.171Z,7.33
2019-02-23T15:33:11.977Z,8.83
2019-02-23T15:35:56.101Z,7.80
2019-02-23T15:39:18.264Z,18.00
2019-02-23T15:42:43.363Z,15.10
2019-02-23T15:45:54.217Z,10.17
2019-02-23T15:49:09.253Z,9.07
2019-02-23T15:51:41.741Z,10.70
2019-02-23T15:54:14.342Z,10.47
2019-02-23T15:56:46.748Z,8.47
2019-02-23T15:59:20.722Z,9.43
2019-02-23T16:01:53.368Z,10.70
2019-02-23T16:04:26.476Z,11.07
2019-02-23T16:06:58.818Z,13.87
2019-02-23T16:09:31.328Z,10.50
2019-02-23T16:12:03.832Z,13.57
2019-02-23T16:14:36.383Z,13.13
2019-02-23T16:17:08.681Z,10.57
2019-02-23T16:19:41.322Z,10.63
2019-02-23T16:22:13.736Z,10.57
2019-02-23T16:24:46.274Z,10.33
2019-02-23T16:27:21.192Z,11.23
2019-02-23T16:29:53.894Z,12.80
2019-02-23T16:32:26.603Z,33.53
2019-02-23T16:35:09.897Z,15.80
2019-02-23T16:37:42.253Z,12.90
2019-02-23T16:40:14.990Z,15.50
2019-02-23T16:42:47.576Z,15.97
2019-02-23T16:45:20.099Z,11.50
2019-02-23T16:47:52.350Z,13.97
2019-02-23T16:50:24.899Z,12.40
2019-02-23T16:52:57.354Z,12.87
2019-02-23T16:55:29.855Z,12.90
2019-02-23T16:58:02.477Z,12.13
2019-02-23T17:00:35.031Z,12.80
2019-02-23T17:03:07.369Z,18.17
2019-02-23T17:05:40.151Z,13.97
2019-02-23T17:08:12.679Z,13.50
2019-02-23T17:10:45.213Z,14.27
2019-02-23T17:13:17.891Z,15.43
2019-02-23T17:15:50.420Z,13.40
2019-02-23T17:18:23.134Z,13.83
2019-02-23T17:20:55.862Z,16.97
2019-02-23T17:23:28.187Z,16.63
2019-02-23T17:26:04.249Z,17.33
2019-02-23T17:28:34.981Z,22.10
2019-02-23T17:31:07.394Z,19.47
2019-02-23T17:33:39.987Z,15.27
2019-02-23T17:36:11.987Z,14.80
2019-02-23T17:38:44.967Z,17.10
2019-02-23T17:41:17.446Z,17.80
2019-02-23T17:43:50.192Z,16.90
2019-02-23T17:46:22.639Z,26.10
2019-02-23T17:48:55.101Z,37.37
2019-02-23T17:51:27.732Z,18.70
2019-02-23T17:54:00.534Z,18.23
2019-02-23T17:56:33.648Z,16.40
2019-02-23T17:59:06.320Z,19.63
2019-02-23T18:01:49.931Z,19.73
2019-02-23T18:04:22.551Z,19.97
2019-02-23T18:06:55.271Z,15.00
2019-02-23T18:09:38.730Z,21.20
2019-02-23T18:12:12.649Z,22.50
2019-02-23T18:14:45.246Z,23.77
2019-02-23T18:17:17.720Z,20.20
2019-02-23T18:20:10.058Z,23.23
2019-02-23T18:22:42.405Z,22.87
2019-02-23T18:25:15.021Z,18.60
2019-02-23T18:27:47.626Z,19.00
2019-02-23T18:30:20.425Z,20.93
2019-02-23T18:32:52.954Z,23.47
2019-02-23T18:35:25.676Z,20.33
2019-02-23T18:37:57.997Z,21.07
2019-02-23T18:40:31.521Z,17.83
2019-02-23T18:43:04.558Z,26.37
2019-02-23T18:45:37.281Z,24.70
2019-02-23T18:48:09.831Z,19.87
2019-02-23T18:50:42.529Z,22.83
2019-02-23T18:53:14.998Z,21.03
2019-02-23T18:55:47.795Z,19.17
2019-02-23T18:58:20.307Z,23.23
2019-02-23T19:00:53.035Z,21.37
2019-02-23T19:03:25.740Z,19.70
2019-02-23T19:05:58.281Z,18.90
2019-02-23T19:08:30.839Z,19.17
2019-02-23T19:11:03.334Z,21.27
2019-02-23T19:13:35.872Z,62.17
2019-02-23T19:16:08.827Z,59.00
2019-02-23T19:18:41.377Z,25.07
2019-02-23T19:21:14.168Z,24.17
2019-02-23T19:23:46.729Z,18.30
2019-02-23T19:26:19.483Z,19.07
2019-02-23T19:28:52.211Z,22.47
2019-02-23T19:31:25.075Z,16.47
2019-02-23T19:33:57.826Z,18.60
2019-02-23T19:36:30.534Z,21.13
2019-02-23T19:39:02.992Z,20.00
2019-02-23T19:41:35.758Z,23.07
2019-02-23T19:44:09.812Z,21.07
2019-02-23T19:46:51.439Z,22.40
2019-02-23T19:49:23.994Z,20.87
2019-02-23T19:51:56.698Z,18.80
2019-02-23T19:54:29.149Z,21.23
2019-02-23T19:57:02.127Z,22.60
2019-02-23T19:59:34.657Z,17.57
2019-02-23T20:02:08.102Z,20.33
2019-02-23T20:04:40.686Z,21.03
2019-02-23T20:07:13.634Z,17.53
2019-02-23T20:09:46.335Z,18.40
2019-02-23T20:12:18.891Z,20.43
2019-02-23T20:14:51.296Z,18.90
2019-02-23T20:17:23.820Z,18.17
2019-02-23T20:19:56.425Z,17.73
2019-02-23T20:22:29.166Z,17.17
2019-02-23T20:25:02.220Z,15.73
2019-02-23T20:27:34.968Z,24.47
2019-02-23T20:30:07.964Z,22.63
2019-02-23T20:32:41.057Z,23.87
2019-02-23T20:35:13.738Z,16.23
2019-02-23T20:37:46.277Z,16.17
2019-02-23T20:40:29.917Z,40.07
2019-02-23T20:43:02.507Z,40.47
2019-02-23T20:45:35.107Z,19.20
2019-02-23T20:48:08.828Z,21.00
2019-02-23T20:50:41.244Z,23.83
2019-02-23T20:53:14.254Z,24.10
2019-02-23T20:55:46.939Z,21.20
2019-02-23T20:58:19.542Z,27.90
2019-02-23T21:00:52.214Z,27.13
2019-02-23T21:03:24.914Z,25.17
2019-02-23T21:05:57.368Z,22.60
2019-02-23T21:08:29.967Z,23.17
2019-02-23T21:11:02.400Z,21.43
2019-02-23T21:13:34.871Z,20.73
2019-02-23T21:16:07.599Z,22.60
2019-02-23T21:18:40.248Z,26.53
2019-02-23T21:21:12.803Z,22.97
2019-02-23T21:23:45.532Z,23.50
2019-02-23T21:26:17.997Z,20.70
2019-02-23T21:28:50.515Z,27.80
2019-02-23T21:31:22.938Z,23.67
2019-02-23T21:33:55.539Z,23.13
2019-02-23T21:36:28.134Z,25.80
2019-02-23T21:39:00.495Z,25.13
2019-02-23T21:41:32.899Z,34.90
2019-02-23T21:44:06.326Z,29.43
2019-02-23T21:46:38.995Z,25.77
2019-02-23T21:49:11.584Z,27.53
2019-02-23T21:51:44.426Z,31.07
2019-02-23T21:54:17.231Z,23.17
2019-02-23T21:56:49.657Z,32.43
2019-02-23T21:59:22.292Z,33.50
2019-02-23T22:01:54.726Z,34.00
2019-02-23T22:04:27.115Z,28.00
2019-02-23T22:06:59.620Z,31.93
2019-02-23T22:09:32.095Z,35.30
2019-02-23T22:12:04.529Z,36.67
2019-02-23T22:14:36.906Z,29.53
2019-02-23T22:17:09.407Z,26.40
2019-02-23T22:19:41.873Z,25.33
2019-02-23T22:22:14.573Z,27.63
2019-02-23T22:24:46.932Z,27.27
2019-02-23T22:27:19.327Z,28.33
2019-02-23T22:29:51.904Z,30.50
2019-02-23T22:32:24.471Z,29.70
2019-02-23T22:34:57.437Z,29.33
2019-02-23T22:37:40.749Z,32.50
2019-02-23T22:40:13.567Z,27.00
2019-02-23T22:42:46.037Z,27.50
2019-02-23T22:45:18.697Z,28.40
2019-02-23T22:47:51.601Z,30.10
2019-02-23T22:50:24.621Z,29.97
2019-02-23T22:52:57.089Z,31.37
2019-02-23T22:55:29.703Z,28.63
2019-02-23T22:58:02.343Z,24.30
2019-02-23T23:00:54.855Z,40.67
2019-02-23T23:03:27.504Z,34.07
2019-02-23T23:05:59.876Z,31.70
2019-02-23T23:08:32.532Z,29.73
2019-02-23T23:11:05.160Z,25.10
2019-02-23T23:13:37.545Z,39.67
2019-02-23T23:16:10.197Z,41.30
2019-02-23T23:18:42.529Z,27.43
2019-02-23T23:21:14.954Z,33.70
2019-02-23T23:23:47.443Z,25.23
2019-02-23T23:26:19.927Z,27.73
2019-02-23T23:28:52.434Z,27.47
2019-02-23T23:31:24.775Z,26.27
2019-02-23T23:33:57.228Z,28.77
2019-02-23T23:36:29.608Z,27.20
2019-02-23T23:39:02.092Z,28.27
2019-02-23T23:41:34.726Z,23.73
2019-02-23T23:44:07.206Z,22.13
2019-02-23T23:46:39.609Z,22.63
2019-02-23T23:49:13.186Z,24.53
2019-02-23T23:51:45.796Z,25.13
2019-02-23T23:54:18.117Z,22.80
2019-02-23T23:56:50.548Z,28.30
2019-02-23T23:59:23.091Z,21.30
